Time;durP1;ratioP1;P1;durP2;ratioP2;P2;SDS_P1;SDS_P2;PMS_P1;PMS_P2;Temp;Humidity;BMP_temperature;BMP_pressure;BME280_temperature;BME280_humidity;BME280_pressure;Samples;Min_cycle;Max_cycle;Signal;HPM_P1;HPM_P2
2023/05/04 00:02:23;;;;;;;0.28;0.28;;;12.00;99.90;;;;;;5077471;28;20027;-74
2023/05/04 00:04:51;;;;;;;0.10;0.10;;;12.00;99.90;;;;;;5080454;28;20569;-74
2023/05/04 00:07:17;;;;;;;0.20;0.20;;;12.00;99.90;;;;;;5081974;28;20035;-73
2023/05/04 00:09:43;;;;;;;0.15;0.15;;;12.00;99.90;;;;;;5082979;28;20028;-74
2023/05/04 00:12:09;;;;;;;0.20;0.20;;;12.00;99.90;;;;;;5081899;28;20032;-73
2023/05/04 00:14:36;;;;;;;0.20;0.20;;;11.90;99.90;;;;;;5082032;28;20009;-74
2023/05/04 00:17:05;;;;;;;0.85;0.85;;;11.90;99.90;;;;;;5081320;28;20031;-72
2023/05/04 00:19:32;;;;;;;0.20;0.20;;;11.90;99.90;;;;;;5081410;28;20149;-72
2023/05/04 00:21:58;;;;;;;0.20;0.20;;;15.00;99.90;;;;;;5080938;28;20032;-74
2023/05/04 00:24:24;;;;;;;0.17;0.17;;;11.90;99.90;;;;;;5081548;28;20020;-72
2023/05/04 00:26:50;;;;;;;0.10;0.10;;;11.90;99.90;;;;;;5081359;28;20023;-72
2023/05/04 00:29:16;;;;;;;0.10;0.10;;;11.90;99.90;;;;;;5081048;28;20058;-72
2023/05/04 00:31:42;;;;;;;0.20;0.20;;;11.90;99.90;;;;;;5081038;28;20572;-72
2023/05/04 00:34:08;;;;;;;1.40;1.40;;;;;;;;;;5081320;28;20027;-72
2023/05/04 00:36:34;;;;;;;0.73;0.73;;;11.90;99.90;;;;;;5083047;28;20016;-73
2023/05/04 00:39:01;;;;;;;0.10;0.10;;;;;;;;;;5086254;28;20020;-73
2023/05/04 00:41:27;;;;;;;0.20;0.20;;;15.00;99.90;;;;;;5083722;28;20032;-73
2023/05/04 00:43:52;;;;;;;0.20;0.20;;;10.90;99.90;;;;;;5083542;28;20036;-72
2023/05/04 00:46:18;;;;;;;0.20;0.20;;;12.00;99.90;;;;;;5080779;28;20016;-73
2023/05/04 00:48:47;;;;;;;1.85;1.75;;;12.00;99.90;;;;;;5081578;28;20024;-73
2023/05/04 00:51:15;;;;;;;0.10;0.10;;;12.00;99.90;;;;;;5084647;28;20087;-74
2023/05/04 00:53:41;;;;;;;0.20;0.20;;;12.40;99.90;;;;;;5085382;28;20036;-73
2023/05/04 00:56:07;;;;;;;0.20;0.20;;;12.30;99.90;;;;;;5084087;28;20024;-74
2023/05/04 00:58:33;;;;;;;1.38;1.13;;;12.30;99.90;;;;;;5082778;28;20056;-73
2023/05/04 01:01:01;;;;;;;0.20;0.20;;;12.10;99.90;;;;;;5082669;28;20073;-75
2023/05/04 01:03:27;;;;;;;0.22;0.22;;;12.10;99.90;;;;;;5086938;28;20020;-74
2023/05/04 01:06:32;;;;;;;0.20;0.20;;;12.20;99.90;;;;;;5088363;28;20096;-74
2023/05/04 01:09:19;;;;;;;0.20;0.20;;;12.10;99.90;;;;;;5021154;28;20100;-73
2023/05/04 01:12:13;;;;;;;0.20;0.20;;;12.10;99.90;;;;;;5005031;28;20196;-75
2023/05/04 01:14:40;;;;;;;0.20;0.20;;;12.20;99.90;;;;;;5017725;28;20124;-72
2023/05/04 01:17:07;;;;;;;0.20;0.20;;;12.20;99.90;;;;;;5016936;28;20155;-72
2023/05/04 01:19:33;;;;;;;0.22;0.22;;;12.20;99.90;;;;;;5016825;28;20112;-71
2023/05/04 01:21:59;;;;;;;0.17;0.17;;;12.20;99.90;;;;;;5017149;28;20033;-72
2023/05/04 01:24:26;;;;;;;0.10;0.10;;;12.10;99.90;;;;;;5016925;28;20698;-72
2023/05/04 01:27:01;;;;;;;0.13;0.13;;;12.20;99.90;;;;;;5000271;28;20037;-72
2023/05/04 01:29:33;;;;;;;0.20;0.20;;;12.20;99.90;;;;;;5017016;28;20036;-72
2023/05/04 01:32:01;;;;;;;0.43;0.43;;;12.10;99.90;;;;;;5016597;28;20143;-73
2023/05/04 01:34:27;;;;;;;0.20;0.20;;;12.10;99.90;;;;;;5016808;28;20033;-72
2023/05/04 01:36:53;;;;;;;0.20;0.20;;;12.10;99.90;;;;;;5016637;28;20799;-72
2023/05/04 01:39:19;;;;;;;1.15;1.15;;;12.10;99.90;;;;;;5016532;28;20044;-72
2023/05/04 01:41:45;;;;;;;3.22;3.03;;;12.10;99.90;;;;;;5016497;28;20033;-73
2023/05/04 01:44:11;;;;;;;0.20;0.20;;;11.80;99.90;;;;;;5016666;28;20017;-74
2023/05/04 01:46:37;;;;;;;0.20;0.20;;;11.90;99.90;;;;;;5069277;28;20052;-73
2023/05/04 01:49:03;;;;;;;0.20;0.20;;;11.90;99.90;;;;;;5080777;28;20059;-72
2023/05/04 01:51:28;;;;;;;0.20;0.20;;;12.40;99.90;;;;;;5080276;28;20708;-72
2023/05/04 01:53:54;;;;;;;0.10;0.10;;;11.90;99.90;;;;;;5080217;28;20047;-72
2023/05/04 01:56:21;;;;;;;0.77;0.77;;;11.80;99.90;;;;;;5082275;28;20080;-72
2023/05/04 01:58:47;;;;;;;1.90;1.83;;;11.80;99.90;;;;;;5078893;28;20028;-72
2023/05/04 02:01:14;;;;;;;1.58;1.58;;;11.80;99.90;;;;;;5081664;28;20034;-72
2023/05/04 02:03:39;;;;;;;0.20;0.20;;;11.80;99.90;;;;;;5079914;28;20108;-72
2023/05/04 02:06:05;;;;;;;0.22;0.22;;;11.80;99.90;;;;;;5083338;28;20043;-72
2023/05/04 02:08:32;;;;;;;0.20;0.20;;;11.80;99.90;;;;;;5082843;28;20547;-72
2023/05/04 02:10:57;;;;;;;0.20;0.20;;;11.80;99.90;;;;;;5082152;28;20103;-72
2023/05/04 02:13:23;;;;;;;0.82;0.82;;;11.70;99.90;;;;;;5082376;28;20115;-72
2023/05/04 02:15:49;;;;;;;0.30;0.30;;;11.70;99.90;;;;;;5083169;28;20608;-73
2023/05/04 02:18:15;;;;;;;0.60;0.60;;;11.70;99.90;;;;;;5081758;28;20054;-72
2023/05/04 02:20:40;;;;;;;1.40;1.40;;;11.70;99.90;;;;;;5083064;28;20025;-72
2023/05/04 02:23:06;;;;;;;0.88;0.88;;;11.70;99.90;;;;;;5081638;28;20028;-73
2023/05/04 02:25:32;;;;;;;0.20;0.20;;;11.70;99.90;;;;;;5082712;28;20016;-74
2023/05/04 02:27:58;;;;;;;0.20;0.20;;;11.70;99.90;;;;;;5086823;28;20040;-72
2023/05/04 02:30:23;;;;;;;0.20;0.20;;;11.70;99.90;;;;;;5080668;28;20268;-72
2023/05/04 02:32:49;;;;;;;0.40;0.40;;;11.70;99.90;;;;;;5079159;28;20755;-72
2023/05/04 02:35:15;;;;;;;0.30;0.30;;;11.70;99.90;;;;;;5078253;28;20571;-73
2023/05/04 02:37:41;;;;;;;2.20;2.10;;;11.40;99.90;;;;;;5081780;28;20032;-72
2023/05/04 02:40:07;;;;;;;0.20;0.20;;;12.00;99.90;;;;;;5081861;28;20081;-75
2023/05/04 02:42:33;;;;;;;0.20;0.20;;;11.70;99.90;;;;;;5079163;28;20028;-73
2023/05/04 02:44:59;;;;;;;0.20;0.20;;;8.70;99.90;;;;;;5080689;28;20016;-72
2023/05/04 02:47:25;;;;;;;5.50;5.15;;;;;;;;;;5078665;28;20654;-73
2023/05/04 02:49:51;;;;;;;0.35;0.35;;;11.70;99.90;;;;;;5080316;28;20020;-73
2023/05/04 02:52:17;;;;;;;0.20;0.20;;;11.90;99.90;;;;;;5082370;28;20067;-72
2023/05/04 02:54:42;;;;;;;0.95;0.95;;;11.70;99.90;;;;;;5081069;28;20051;-73
2023/05/04 02:57:08;;;;;;;0.75;0.75;;;11.70;99.90;;;;;;5080986;28;20078;-73
2023/05/04 02:59:34;;;;;;;0.20;0.20;;;11.70;99.90;;;;;;5081637;28;20115;-73
2023/05/04 03:01:59;;;;;;;0.20;0.20;;;11.70;99.90;;;;;;5082198;28;20012;-73
2023/05/04 03:04:25;;;;;;;0.20;0.20;;;11.70;99.90;;;;;;5080336;28;20020;-72
2023/05/04 03:06:51;;;;;;;0.22;0.22;;;11.80;99.90;;;;;;5078352;28;20024;-73
2023/05/04 03:09:17;;;;;;;0.10;0.10;;;11.70;99.90;;;;;;5079209;28;20069;-72
2023/05/04 03:11:43;;;;;;;0.20;0.20;;;11.80;99.90;;;;;;5079130;28;20705;-72
2023/05/04 03:14:08;;;;;;;0.30;0.30;;;11.80;99.90;;;;;;5080605;28;20654;-73
2023/05/04 03:16:34;;;;;;;0.22;0.22;;;11.80;99.90;;;;;;5080463;28;20023;-72
2023/05/04 03:19:00;;;;;;;0.35;0.35;;;11.80;99.90;;;;;;5078668;28;20140;-73
2023/05/04 03:21:26;;;;;;;1.98;1.88;;;11.80;99.90;;;;;;5079243;28;20024;-73
2023/05/04 03:23:51;;;;;;;0.63;0.63;;;11.80;99.90;;;;;;5078584;28;20692;-73
2023/05/04 03:26:17;;;;;;;0.40;0.40;;;11.80;99.90;;;;;;5078542;28;20093;-72
2023/05/04 03:28:44;;;;;;;0.20;0.20;;;11.80;99.90;;;;;;5078481;28;20031;-72
2023/05/04 03:31:10;;;;;;;3.40;3.17;;;11.80;99.90;;;;;;5078711;28;20036;-72
2023/05/04 03:33:36;;;;;;;0.20;0.20;;;11.80;99.90;;;;;;5079098;28;20012;-72
2023/05/04 03:36:01;;;;;;;0.20;0.20;;;11.80;99.90;;;;;;5079771;28;20115;-71
2023/05/04 03:38:27;;;;;;;0.20;0.20;;;11.80;99.90;;;;;;5081000;28;20054;-73
2023/05/04 03:40:53;;;;;;;0.40;0.40;;;11.80;99.90;;;;;;5084473;28;20043;-73
2023/05/04 03:43:19;;;;;;;0.20;0.20;;;11.90;99.90;;;;;;5082694;28;20020;-72
2023/05/04 03:45:45;;;;;;;0.20;0.20;;;11.90;99.90;;;;;;5082768;28;20077;-72
2023/05/04 03:48:11;;;;;;;0.68;0.68;;;;;;;;;;5086521;28;20510;-72
2023/05/04 03:50:36;;;;;;;11.30;4.95;;;11.90;99.90;;;;;;5083493;28;20020;-72
2023/05/04 03:53:02;;;;;;;0.30;0.30;;;11.90;99.90;;;;;;5082492;28;20654;-72
2023/05/04 03:55:28;;;;;;;0.20;0.20;;;;;;;;;;5082724;28;20016;-73
2023/05/04 03:57:54;;;;;;;0.20;0.20;;;11.90;99.90;;;;;;5082021;28;20261;-72
2023/05/04 04:00:20;;;;;;;0.20;0.20;;;11.90;99.90;;;;;;5085731;28;20502;-73
2023/05/04 04:02:46;;;;;;;0.32;0.32;;;11.90;99.90;;;;;;5084091;28;20032;-73
2023/05/04 04:05:11;;;;;;;0.30;0.30;;;11.90;99.90;;;;;;5083557;28;20667;-73
2023/05/04 04:07:37;;;;;;;0.35;0.35;;;11.90;99.90;;;;;;5085217;28;20219;-74
2023/05/04 04:10:03;;;;;;;0.20;0.20;;;11.80;99.90;;;;;;5081775;28;20064;-73
2023/05/04 04:12:30;;;;;;;0.13;0.13;;;11.80;99.90;;;;;;5079653;28;20059;-73
2023/05/04 04:14:56;;;;;;;2.65;2.53;;;11.80;99.90;;;;;;5080217;28;20024;-72
2023/05/04 04:17:21;;;;;;;0.20;0.20;;;11.80;99.90;;;;;;5084528;28;20032;-72
2023/05/04 04:19:47;;;;;;;0.20;0.20;;;11.80;99.90;;;;;;5086598;28;20208;-73
2023/05/04 04:22:15;;;;;;;0.10;0.10;;;11.90;99.90;;;;;;5088607;28;20013;-73
2023/05/04 04:24:41;;;;;;;0.20;0.20;;;11.90;99.90;;;;;;5084701;28;20024;-73
2023/05/04 04:27:07;;;;;;;0.20;0.20;;;11.70;99.90;;;;;;5086982;28;20018;-73
2023/05/04 04:29:34;;;;;;;0.30;0.30;;;11.80;99.90;;;;;;5089073;28;20087;-75
2023/05/04 04:32:01;;;;;;;0.10;0.10;;;12.00;99.90;;;;;;5089572;28;20113;-74
2023/05/04 04:34:27;;;;;;;0.20;0.20;;;10.40;99.90;;;;;;5090964;28;20118;-73
2023/05/04 04:36:53;;;;;;;0.30;0.30;;;;;;;;;;5087308;28;20150;-73
2023/05/04 04:39:19;;;;;;;0.35;0.35;;;11.60;99.90;;;;;;5086670;28;20040;-74
2023/05/04 04:41:45;;;;;;;0.20;0.20;;;11.50;99.90;;;;;;5086948;28;20027;-72
2023/05/04 04:44:10;;;;;;;0.20;0.20;;;11.50;99.90;;;;;;5086160;28;20024;-75
2023/05/04 04:46:36;;;;;;;1.38;1.38;;;11.50;99.90;;;;;;5086422;28;21027;-73
2023/05/04 04:49:04;;;;;;;1.40;1.40;;;11.60;99.90;;;;;;5085687;28;20081;-73
2023/05/04 04:51:29;;;;;;;0.20;0.20;;;11.80;99.90;;;;;;5085894;28;20020;-74
2023/05/04 04:53:57;;;;;;;0.13;0.13;;;11.90;99.90;;;;;;5085333;28;20592;-73
2023/05/04 04:56:22;;;;;;;0.22;0.22;;;11.70;99.90;;;;;;5089966;28;20044;-74
2023/05/04 04:58:49;;;;;;;0.10;0.10;;;11.40;99.90;;;;;;5097843;28;20047;-75
2023/05/04 05:01:17;;;;;;;0.20;0.20;;;11.80;99.90;;;;;;5093862;28;20012;-73
2023/05/04 05:03:44;;;;;;;0.10;0.10;;;11.20;99.90;;;;;;5094055;28;20012;-72
2023/05/04 05:06:10;;;;;;;0.52;0.52;;;11.40;99.90;;;;;;5093198;28;20030;-72
2023/05/04 05:08:37;;;;;;;3.53;2.72;;;11.40;99.90;;;;;;5092198;28;20032;-73
2023/05/04 05:11:03;;;;;;;0.68;0.68;;;11.40;99.90;;;;;;5092478;28;20016;-75
2023/05/04 05:13:31;;;;;;;0.50;0.50;;;11.40;99.90;;;;;;5092403;28;20039;-74
2023/05/04 05:15:57;;;;;;;0.20;0.20;;;9.50;99.90;;;;;;5092419;28;20085;-76
2023/05/04 05:18:23;;;;;;;0.10;0.10;;;;;;;;;;5092095;28;20032;-73
2023/05/04 05:20:49;;;;;;;0.10;0.10;;;11.30;99.90;;;;;;5083240;28;20647;-73
2023/05/04 05:23:15;;;;;;;0.20;0.20;;;11.30;99.90;;;;;;5086899;28;20023;-75
2023/05/04 05:25:43;;;;;;;0.32;0.32;;;11.30;99.90;;;;;;5085894;28;20021;-73
2023/05/04 05:28:09;;;;;;;0.10;0.10;;;11.30;99.90;;;;;;5083247;28;20016;-75
2023/05/04 05:30:35;;;;;;;0.20;0.20;;;11.30;99.90;;;;;;5083452;28;20015;-73
2023/05/04 05:33:02;;;;;;;0.13;0.13;;;14.30;99.90;;;;;;5085151;28;20028;-74
2023/05/04 05:35:28;;;;;;;0.20;0.20;;;11.30;99.90;;;;;;5085126;28;20562;-72
2023/05/04 05:37:54;;;;;;;4.40;4.20;;;11.10;99.90;;;;;;5083080;28;20058;-72
2023/05/04 05:40:21;;;;;;;0.10;0.10;;;11.60;99.90;;;;;;5081596;28;20020;-72
2023/05/04 05:42:47;;;;;;;0.20;0.20;;;8.40;99.90;;;;;;5083476;28;20036;-72
2023/05/04 05:45:13;;;;;;;2.60;2.38;;;11.40;99.90;;;;;;5082905;28;20071;-72
2023/05/04 05:47:39;;;;;;;0.20;0.20;;;11.40;99.90;;;;;;5084168;28;20510;-75
2023/05/04 05:50:06;;;;;;;0.55;0.55;;;11.60;99.90;;;;;;5083963;28;20012;-76
2023/05/04 05:52:32;;;;;;;0.20;0.20;;;11.50;99.90;;;;;;5079284;28;20024;-74
2023/05/04 05:54:58;;;;;;;0.20;0.20;;;11.60;99.90;;;;;;5079015;28;20039;-75
2023/05/04 05:57:23;;;;;;;0.15;0.15;;;11.90;99.90;;;;;;5078683;28;20670;-74
2023/05/04 05:59:49;;;;;;;0.10;0.10;;;11.90;99.90;;;;;;5079625;28;20055;-73
2023/05/04 06:02:15;;;;;;;0.10;0.10;;;11.80;99.90;;;;;;5080923;28;20077;-75
2023/05/04 06:04:42;;;;;;;0.20;0.20;;;11.80;99.90;;;;;;5080793;28;20024;-75
2023/05/04 06:07:08;;;;;;;0.20;0.20;;;11.70;99.90;;;;;;5080926;28;20189;-75
2023/05/04 06:09:33;;;;;;;0.20;0.20;;;12.60;99.90;;;;;;5079424;28;20552;-74
2023/05/04 06:12:00;;;;;;;0.10;0.10;;;11.80;99.90;;;;;;5079135;28;20036;-74
2023/05/04 06:14:26;;;;;;;0.10;0.10;;;11.80;99.90;;;;;;5079356;28;20024;-74
2023/05/04 06:16:52;;;;;;;0.20;0.20;;;11.80;99.90;;;;;;5079496;28;20043;-74
2023/05/04 06:19:18;;;;;;;4.40;4.10;;;11.80;99.90;;;;;;5079378;28;20650;-74
2023/05/04 06:21:47;;;;;;;0.20;0.20;;;11.80;99.90;;;;;;5079240;28;20062;-75
2023/05/04 06:24:12;;;;;;;0.10;0.10;;;11.80;99.90;;;;;;5081344;28;20035;-75
2023/05/04 06:26:38;;;;;;;0.20;0.20;;;11.90;99.90;;;;;;5078975;28;20316;-74
2023/05/04 06:29:04;;;;;;;0.20;0.20;;;11.90;99.90;;;;;;5077274;28;20077;-75
2023/05/04 06:31:30;;;;;;;1.42;1.38;;;11.90;99.90;;;;;;5078996;28;20452;-72
2023/05/04 06:33:56;;;;;;;0.10;0.10;;;11.90;99.90;;;;;;5078673;28;20020;-72
2023/05/04 06:36:24;;;;;;;0.20;0.20;;;11.90;99.90;;;;;;5077029;28;20036;-74
2023/05/04 06:38:50;;;;;;;0.20;0.20;;;13.10;99.90;;;;;;5077007;28;20050;-74
2023/05/04 06:41:16;;;;;;;0.20;0.20;;;12.00;99.90;;;;;;5078305;28;20016;-74
2023/05/04 06:43:41;;;;;;;1.55;1.55;;;12.10;99.90;;;;;;5078420;28;20036;-73
2023/05/04 06:46:07;;;;;;;0.20;0.20;;;12.20;99.90;;;;;;5078049;28;20012;-74
2023/05/04 06:48:33;;;;;;;0.17;0.17;;;12.40;99.90;;;;;;5076828;28;20274;-75
2023/05/04 06:50:59;;;;;;;0.25;0.25;;;12.50;99.90;;;;;;5077711;28;20024;-74
2023/05/04 06:53:24;;;;;;;0.20;0.20;;;12.50;99.90;;;;;;5077821;28;20044;-79
2023/05/04 06:55:50;;;;;;;0.15;0.15;;;12.60;99.90;;;;;;5077468;28;20104;-75
2023/05/04 06:58:20;;;;;;;0.20;0.20;;;12.60;99.90;;;;;;5077367;28;20040;-76
2023/05/04 07:00:47;;;;;;;2.00;1.85;;;12.70;99.90;;;;;;5077366;28;20261;-76
2023/05/04 07:03:12;;;;;;;0.30;0.30;;;12.80;99.90;;;;;;5076732;28;20039;-75
2023/05/04 07:05:38;;;;;;;0.20;0.20;;;12.90;99.90;;;;;;5076176;28;20391;-74
2023/05/04 07:08:05;;;;;;;0.50;0.50;;;13.00;99.90;;;;;;5077160;28;20422;-75
2023/05/04 07:10:31;;;;;;;0.20;0.20;;;13.10;99.90;;;;;;5077033;28;20020;-77
2023/05/04 07:12:57;;;;;;;0.20;0.20;;;13.20;99.90;;;;;;5075422;28;20039;-74
2023/05/04 07:15:23;;;;;;;0.28;0.28;;;13.20;99.90;;;;;;5077435;28;20324;-75
2023/05/04 07:17:49;;;;;;;2.95;2.75;;;12.70;99.90;;;;;;5077147;28;20032;-80
2023/05/04 07:20:15;;;;;;;0.30;0.30;;;13.30;99.90;;;;;;5077317;28;20266;-76
2023/05/04 07:22:40;;;;;;;0.20;0.20;;;13.20;99.90;;;;;;5077078;28;20024;-74
2023/05/04 07:25:07;;;;;;;0.10;0.10;;;13.10;99.90;;;;;;5077264;28;20020;-78
2023/05/04 07:27:36;;;;;;;0.20;0.20;;;13.00;99.90;;;;;;5077426;28;20028;-78
2023/05/04 07:30:05;;;;;;;0.10;0.10;;;13.00;99.90;;;;;;5077106;28;20262;-77
2023/05/04 07:32:31;;;;;;;0.20;0.20;;;13.10;99.90;;;;;;5076944;28;20444;-74
2023/05/04 07:34:57;;;;;;;0.20;0.20;;;13.10;99.90;;;;;;5076897;28;20028;-75
2023/05/04 07:37:22;;;;;;;0.57;0.57;;;13.20;99.90;;;;;;5077020;28;20092;-75
2023/05/04 07:39:48;;;;;;;0.55;0.55;;;13.10;99.90;;;;;;5077204;28;20390;-73
2023/05/04 07:42:14;;;;;;;0.20;0.20;;;13.20;99.90;;;;;;5075805;28;20093;-74
2023/05/04 07:44:40;;;;;;;0.75;0.75;;;13.20;99.90;;;;;;5076961;28;20021;-79
2023/05/04 07:47:06;;;;;;;0.10;0.10;;;13.30;99.90;;;;;;5076786;28;20189;-76
2023/05/04 07:49:32;;;;;;;3.72;1.95;;;13.40;99.90;;;;;;5076730;28;20316;-75
2023/05/04 07:51:58;;;;;;;0.20;0.20;;;13.30;99.90;;;;;;5076824;28;20077;-74
2023/05/04 07:54:23;;;;;;;0.10;0.10;;;13.40;99.90;;;;;;5076944;28;20160;-78
2023/05/04 07:56:49;;;;;;;0.30;0.30;;;13.50;99.90;;;;;;5076771;28;20012;-74
2023/05/04 07:59:18;;;;;;;0.20;0.20;;;13.50;99.90;;;;;;5076460;28;20412;-75
2023/05/04 08:01:45;;;;;;;0.10;0.10;;;13.50;99.90;;;;;;5076420;28;20391;-74
2023/05/04 08:04:10;;;;;;;1.70;1.60;;;13.60;99.90;;;;;;5076608;28;20023;-75
2023/05/04 08:06:40;;;;;;;0.10;0.10;;;13.50;99.90;;;;;;5076967;28;20025;-75
2023/05/04 08:09:06;;;;;;;0.20;0.20;;;13.40;99.90;;;;;;5077794;28;20016;-74
2023/05/04 08:11:33;;;;;;;0.30;0.30;;;13.50;99.90;;;;;;5076247;28;20047;-75
2023/05/04 08:13:59;;;;;;;0.68;0.68;;;13.50;99.90;;;;;;5077211;28;20052;-75
2023/05/04 08:16:26;;;;;;;2.25;2.15;;;13.50;99.90;;;;;;5078583;28;20648;-82
2023/05/04 08:18:52;;;;;;;0.20;0.20;;;13.50;99.90;;;;;;5079466;28;20118;-77
2023/05/04 08:21:18;;;;;;;0.20;0.20;;;13.50;99.90;;;;;;5077389;28;20679;-77
2023/05/04 08:23:44;;;;;;;1.55;1.55;;;13.60;99.90;;;;;;5079487;28;20028;-78
2023/05/04 08:26:10;;;;;;;0.15;0.15;;;13.70;99.90;;;;;;5080584;28;20035;-73
2023/05/04 08:28:38;;;;;;;0.20;0.20;;;13.80;99.90;;;;;;5080896;28;20357;-71
2023/05/04 08:31:03;;;;;;;4.38;4.18;;;13.80;99.90;;;;;;5080621;28;20035;-72
2023/05/04 08:33:29;;;;;;;0.17;0.17;;;13.80;99.90;;;;;;5081633;28;20012;-78
2023/05/04 08:35:55;;;;;;;0.10;0.10;;;13.90;99.90;;;;;;5081056;28;20027;-73
2023/05/04 08:38:21;;;;;;;0.15;0.15;;;13.80;99.90;;;;;;5080696;28;20145;-73
2023/05/04 08:40:46;;;;;;;0.10;0.10;;;13.90;99.90;;;;;;5080664;28;20032;-73
2023/05/04 08:43:12;;;;;;;0.40;0.40;;;14.00;99.90;;;;;;5080667;28;20113;-72
2023/05/04 08:45:39;;;;;;;2.17;2.08;;;14.00;99.90;;;;;;5080767;28;20024;-74
2023/05/04 08:48:08;;;;;;;0.10;0.10;;;14.20;99.90;;;;;;5080701;28;20104;-73
2023/05/04 08:50:36;;;;;;;0.10;0.10;;;14.10;99.90;;;;;;5080569;28;20016;-78
2023/05/04 08:53:05;;;;;;;0.20;0.20;;;14.20;99.90;;;;;;5080434;28;20024;-72
2023/05/04 08:55:39;;;;;;;0.20;0.20;;;14.30;99.90;;;;;;5080486;28;20035;-71
2023/05/04 08:58:10;;;;;;;0.10;0.10;;;14.30;99.90;;;;;;5080488;28;20675;-76
2023/05/04 09:00:37;;;;;;;0.55;0.55;;;14.30;99.90;;;;;;5080492;28;20077;-74
2023/05/04 09:03:04;;;;;;;0.35;0.35;;;14.30;99.90;;;;;;5080023;28;20020;-75
2023/05/04 09:05:31;;;;;;;0.50;0.50;;;14.20;99.90;;;;;;5080498;28;20021;-79
2023/05/04 09:07:57;;;;;;;0.20;0.20;;;14.20;99.90;;;;;;5080175;28;20111;-75
2023/05/04 09:10:23;;;;;;;0.30;0.30;;;14.20;99.90;;;;;;5077966;28;20559;-80
2023/05/04 09:12:52;;;;;;;0.20;0.20;;;14.30;99.90;;;;;;5079311;28;20024;-74
2023/05/04 09:15:19;;;;;;;3.10;2.88;;;14.30;99.90;;;;;;5079880;28;20739;-72
2023/05/04 09:18:02;;;;;;;0.20;0.20;;;14.40;99.90;;;;;;5079847;28;20056;-74
2023/05/04 09:20:29;;;;;;;0.32;0.32;;;14.40;99.90;;;;;;5080699;28;20028;-79
2023/05/04 09:23:08;;;;;;;0.20;0.20;;;14.40;99.90;;;;;;5080274;28;20016;-86
2023/05/04 09:25:51;;;;;;;0.40;0.40;;;14.50;99.90;;;;;;5080177;28;20021;-72
2023/05/04 09:28:18;;;;;;;0.13;0.13;;;14.70;99.90;;;;;;5079997;28;20100;-72
2023/05/04 09:30:45;;;;;;;0.20;0.20;;;14.80;99.90;;;;;;5079718;28;20094;-72
2023/05/04 09:33:11;;;;;;;0.30;0.30;;;15.00;99.90;;;;;;5079509;28;20032;-78
2023/05/04 09:35:43;;;;;;;0.20;0.20;;;15.20;99.90;;;;;;5079522;28;20185;-72
2023/05/04 09:38:09;;;;;;;0.40;0.40;;;15.50;99.90;;;;;;5077311;28;20040;-72
2023/05/04 09:40:40;;;;;;;0.10;0.10;;;15.70;99.90;;;;;;5079247;28;20024;-73
2023/05/04 09:43:09;;;;;;;1.30;1.25;;;15.90;99.90;;;;;;5079201;28;20533;-73
2023/05/04 09:45:40;;;;;;;0.10;0.10;;;16.00;99.90;;;;;;5079385;28;20046;-73
2023/05/04 09:48:19;;;;;;;0.10;0.10;;;13.90;99.90;;;;;;5079019;28;20012;-76
2023/05/04 09:50:52;;;;;;;2.00;1.85;;;16.10;99.90;;;;;;5077830;28;20031;-76
2023/05/04 09:53:19;;;;;;;;;;;16.40;99.90;;;;;;5079657;28;20150;-73
2023/05/04 09:55:48;;;;;;;1.00;1.00;;;16.60;99.90;;;;;;5078012;28;19944;-72
2023/05/04 09:58:15;;;;;;;0.10;0.10;;;16.60;99.90;;;;;;5079013;28;20036;-74
2023/05/04 10:00:43;;;;;;;0.15;0.15;;;16.80;99.90;;;;;;5078823;28;20028;-72
2023/05/04 10:03:11;;;;;;;0.15;0.15;;;17.30;99.90;;;;;;5078505;28;20042;-71
2023/05/04 10:05:38;;;;;;;0.73;0.73;;;17.10;99.90;;;;;;5078531;28;20096;-76
2023/05/04 10:08:05;;;;;;;2.53;2.25;;;19.70;99.90;;;;;;5078779;28;20633;-72
2023/05/04 10:10:32;;;;;;;0.63;0.63;;;16.90;99.90;;;;;;5078614;28;20024;-71
2023/05/04 10:12:58;;;;;;;1.95;1.85;;;16.90;99.90;;;;;;5078503;28;20667;-72
2023/05/04 10:15:24;;;;;;;0.10;0.10;;;17.20;99.90;;;;;;5078816;28;20709;-76
2023/05/04 10:18:00;;;;;;;0.50;0.50;;;17.20;99.90;;;;;;5078530;28;20043;-73
2023/05/04 10:20:42;;;;;;;0.63;0.63;;;17.50;99.90;;;;;;5079302;28;20016;-76
2023/05/04 10:23:32;;;;;;;9.98;3.17;;;17.20;99.90;;;;;;5078464;28;20527;-71
2023/05/04 10:26:19;;;;;;;0.25;0.25;;;17.40;99.90;;;;;;5078662;28;20227;-72
2023/05/04 10:29:27;;;;;;;0.20;0.20;;;17.80;99.90;;;;;;5078557;28;20012;-72
2023/05/04 10:31:53;;;;;;;2.83;1.27;;;17.90;99.90;;;;;;5078678;28;20497;-72
2023/05/04 10:34:30;;;;;;;0.68;0.68;;;18.10;99.90;;;;;;5078697;28;20028;-75
2023/05/04 10:36:57;;;;;;;0.20;0.20;;;17.90;99.90;;;;;;5078829;28;20232;-72
2023/05/04 10:39:29;;;;;;;0.10;0.10;;;17.80;99.90;;;;;;5078527;28;20027;-74
2023/05/04 10:42:06;;;;;;;0.15;0.15;;;17.60;99.90;;;;;;5078581;28;20128;-73
2023/05/04 10:44:53;;;;;;;1.48;1.38;;;17.70;99.90;;;;;;5079366;28;20032;-73
2023/05/04 10:47:31;;;;;;;0.40;0.40;;;17.70;99.90;;;;;;5077460;28;20016;-72
2023/05/04 10:50:09;;;;;;;2.05;1.95;;;17.70;99.90;;;;;;5078945;28;20085;-73
2023/05/04 10:52:45;;;;;;;0.40;0.40;;;18.00;99.90;;;;;;5076996;28;20177;-75
2023/05/04 10:55:11;;;;;;;0.10;0.10;;;18.30;99.90;;;;;;5078425;28;20086;-76
2023/05/04 10:57:54;;;;;;;0.10;0.10;;;18.70;99.90;;;;;;5079739;28;20055;-72
2023/05/04 11:00:20;;;;;;;0.63;0.63;;;19.00;99.90;;;;;;5078590;28;20038;-72
2023/05/04 11:02:47;;;;;;;1.02;0.95;;;19.20;99.90;;;;;;5077925;28;20525;-75
2023/05/04 11:05:18;;;;;;;1.13;1.05;;;19.60;99.90;;;;;;5078264;28;20024;-77
2023/05/04 11:07:44;;;;;;;0.38;0.38;;;19.70;99.90;;;;;;5077061;28;20016;-76
2023/05/04 11:10:24;;;;;;;0.68;0.68;;;20.00;99.90;;;;;;5078016;28;20017;-72
2023/05/04 11:12:51;;;;;;;0.10;0.10;;;20.30;99.90;;;;;;5077469;28;20034;-76
2023/05/04 11:15:18;;;;;;;0.65;0.65;;;20.30;99.90;;;;;;5077695;28;20023;-74
2023/05/04 11:17:50;;;;;;;0.10;0.10;;;21.40;99.90;;;;;;5077334;28;20031;-73
2023/05/04 11:20:34;;;;;;;0.50;0.50;;;20.30;99.90;;;;;;5078192;28;20081;-73
2023/05/04 11:23:00;;;;;;;3.38;1.08;;;20.00;99.90;;;;;;5077375;28;20020;-73
2023/05/04 11:25:30;;;;;;;0.68;0.68;;;20.80;99.90;;;;;;5077646;28;20024;-74
2023/05/04 11:27:57;;;;;;;0.15;0.15;;;19.70;99.90;;;;;;5077417;28;20086;-77
2023/05/04 11:30:35;;;;;;;0.20;0.20;;;19.50;99.90;;;;;;5077381;28;20013;-73
2023/05/04 11:33:03;;;;;;;0.10;0.10;;;19.10;99.90;;;;;;5077379;28;20016;-73
2023/05/04 11:35:29;;;;;;;0.20;0.20;;;18.70;99.90;;;;;;5077298;28;20027;-79
2023/05/04 11:37:55;;;;;;;1.20;1.10;;;18.20;99.90;;;;;;5077084;28;20020;-73
2023/05/04 11:40:26;;;;;;;0.10;0.10;;;18.10;99.90;;;;;;5077140;28;20020;-73
2023/05/04 11:42:53;;;;;;;0.43;0.43;;;17.90;99.90;;;;;;5077431;28;20039;-73
2023/05/04 11:45:23;;;;;;;1.30;1.20;;;17.70;99.90;;;;;;5075927;28;20034;-72
2023/05/04 11:47:51;;;;;;;0.20;0.20;;;17.70;99.90;;;;;;5076967;28;20024;-75
2023/05/04 11:50:19;;;;;;;0.63;0.63;;;17.60;99.90;;;;;;5076907;28;20324;-74
2023/05/04 11:52:45;;;;;;;1.25;1.15;;;17.40;99.90;;;;;;5076931;28;20081;-73
2023/05/04 11:55:26;;;;;;;0.40;0.40;;;17.30;99.90;;;;;;5076986;28;20036;-77
2023/05/04 11:57:58;;;;;;;0.32;0.32;;;17.20;99.90;;;;;;5075622;28;20652;-74
2023/05/04 12:00:39;;;;;;;0.10;0.10;;;17.10;99.90;;;;;;5078928;28;20456;-78
2023/05/04 12:03:08;;;;;;;0.57;0.57;;;17.10;99.90;;;;;;5081102;28;20701;-73
2023/05/04 12:05:36;;;;;;;0.30;0.30;;;17.10;99.90;;;;;;5080989;28;20008;-76
2023/05/04 12:08:02;;;;;;;0.57;0.57;;;16.90;99.90;;;;;;5078753;28;20025;-73
2023/05/04 12:10:34;;;;;;;0.10;0.10;;;16.70;99.90;;;;;;5080537;28;20345;-75
2023/05/04 12:13:00;;;;;;;0.40;0.40;;;16.70;99.90;;;;;;5081016;28;20565;-79
2023/05/04 12:15:28;;;;;;;0.22;0.22;;;16.70;99.90;;;;;;5080839;28;20085;-74
2023/05/04 12:17:54;;;;;;;0.10;0.10;;;16.70;99.90;;;;;;5080409;28;20031;-73
2023/05/04 12:20:24;;;;;;;0.35;0.35;;;16.80;99.90;;;;;;5081002;28;20603;-76
2023/05/04 12:22:51;;;;;;;0.40;0.40;;;16.90;99.90;;;;;;5081021;28;20020;-80
2023/05/04 12:25:20;;;;;;;0.20;0.20;;;17.10;99.90;;;;;;5080770;28;20050;-76
2023/05/04 12:27:46;;;;;;;1.33;1.33;;;17.20;99.90;;;;;;5079199;28;20032;-73
2023/05/04 12:30:13;;;;;;;0.30;0.30;;;17.40;99.90;;;;;;5079595;28;20481;-72
2023/05/04 12:32:40;;;;;;;0.13;0.13;;;17.60;99.90;;;;;;5078623;28;20511;-74
2023/05/04 12:35:06;;;;;;;1.33;1.23;;;17.70;99.90;;;;;;5079170;28;20101;-79
2023/05/04 12:37:35;;;;;;;1.10;1.10;;;17.90;99.90;;;;;;5080546;28;20075;-73
2023/05/04 12:40:01;;;;;;;0.65;0.65;;;18.20;99.90;;;;;;5080199;28;20016;-78
2023/05/04 12:42:27;;;;;;;0.28;0.28;;;18.40;99.90;;;;;;5080185;28;20020;-76
2023/05/04 12:44:53;;;;;;;0.50;0.50;;;18.70;99.90;;;;;;5080414;28;20027;-74
2023/05/04 12:47:22;;;;;;;1.65;1.55;;;18.90;99.90;;;;;;5079468;28;20024;-73
2023/05/04 12:49:48;;;;;;;0.17;0.17;;;19.00;99.90;;;;;;5080693;28;20024;-73
2023/05/04 12:52:14;;;;;;;0.25;0.25;;;18.90;99.90;;;;;;5079996;28;20043;-71
2023/05/04 12:54:40;;;;;;;0.10;0.10;;;18.80;99.90;;;;;;5080614;28;20728;-72